sensor_id;sensor_type;location;lat;lon;timestamp;pressure;altitude;pressure_sealevel;temperature;humidity
57763;BME280;43592;42.524;12.052;2022-07-06T00:01:07;96843.03;;;18.33;82.02
57763;BME280;43592;42.524;12.052;2022-07-06T00:03:33;96829.50;;;18.33;79.78
57763;BME280;43592;42.524;12.052;2022-07-06T00:05:58;96838.03;;;18.32;78.93
57763;BME280;43592;42.524;12.052;2022-07-06T00:08:24;96827.56;;;18.23;77.48
57763;BME280;43592;42.524;12.052;2022-07-06T00:10:49;96823.28;;;18.15;80.27
57763;BME280;43592;42.524;12.052;2022-07-06T00:13:15;96826.72;;;18.05;78.41
57763;BME280;43592;42.524;12.052;2022-07-06T00:15:40;96829.44;;;17.98;79.45
57763;BME280;43592;42.524;12.052;2022-07-06T00:18:06;96823.63;;;17.92;79.66
57763;BME280;43592;42.524;12.052;2022-07-06T00:20:31;96824.38;;;17.92;82.36
57763;BME280;43592;42.524;12.052;2022-07-06T00:22:57;96824.38;;;17.92;81.65
57763;BME280;43592;42.524;12.052;2022-07-06T00:25:22;96823.63;;;17.95;81.92
57763;BME280;43592;42.524;12.052;2022-07-06T00:27:48;96817.81;;;17.97;82.58
57763;BME280;43592;42.524;12.052;2022-07-06T00:30:13;96815.91;;;17.98;82.28
57763;BME280;43592;42.524;12.052;2022-07-06T00:32:39;96820.50;;;17.97;80.88
57763;BME280;43592;42.524;12.052;2022-07-06T00:35:05;96816.66;;;17.98;82.29
57763;BME280;43592;42.524;12.052;2022-07-06T00:37:30;96816.66;;;17.98;80.17
57763;BME280;43592;42.524;12.052;2022-07-06T00:39:56;96823.63;;;17.99;81.57
57763;BME280;43592;42.524;12.052;2022-07-06T00:42:21;96830.56;;;18.00;81.07
57763;BME280;43592;42.524;12.052;2022-07-06T00:44:47;96828.28;;;18.02;81.50
57763;BME280;43592;42.524;12.052;2022-07-06T00:47:12;96834.09;;;18.04;82.97
57763;BME280;43592;42.524;12.052;2022-07-06T00:49:38;96840.28;;;18.01;81.18
57763;BME280;43592;42.524;12.052;2022-07-06T00:52:22;96840.63;;;17.92;80.17
57763;BME280;43592;42.524;12.052;2022-07-06T00:54:49;96832.47;;;17.85;79.44
57763;BME280;43592;42.524;12.052;2022-07-06T00:57:15;96830.13;;;17.80;79.04
57763;BME280;43592;42.524;12.052;2022-07-06T00:59:40;96829.75;;;17.82;80.93
57763;BME280;43592;42.524;12.052;2022-07-06T01:02:07;96826.28;;;17.85;79.83
57763;BME280;43592;42.524;12.052;2022-07-06T01:04:33;96823.22;;;17.93;78.86
57763;BME280;43592;42.524;12.052;2022-07-06T01:06:58;96816.66;;;18.02;78.84
57763;BME280;43592;42.524;12.052;2022-07-06T01:09:24;96810.88;;;18.10;79.77
57763;BME280;43592;42.524;12.052;2022-07-06T01:11:50;96807.81;;;18.15;80.32
57763;BME280;43592;42.524;12.052;2022-07-06T01:14:17;96812.84;;;18.24;80.75
57763;BME280;43592;42.524;12.052;2022-07-06T01:16:43;96818.25;;;18.31;78.16
57763;BME280;43592;42.524;12.052;2022-07-06T01:19:09;96817.13;;;18.39;78.63
57763;BME280;43592;42.524;12.052;2022-07-06T01:21:37;96815.19;;;18.44;77.15
57763;BME280;43592;42.524;12.052;2022-07-06T01:24:02;96808.59;;;18.45;75.64
57763;BME280;43592;42.524;12.052;2022-07-06T01:26:28;96809.00;;;18.47;75.00
57763;BME280;43592;42.524;12.052;2022-07-06T01:28:54;96804.34;;;18.47;75.66
57763;BME280;43592;42.524;12.052;2022-07-06T01:33:45;96800.47;;;18.48;75.81
57763;BME280;43592;42.524;12.052;2022-07-06T01:36:10;96809.00;;;18.50;76.46
57763;BME280;43592;42.524;12.052;2022-07-06T01:41:11;96809.78;;;18.47;74.50
57763;BME280;43592;42.524;12.052;2022-07-06T01:43:37;96815.97;;;18.44;76.29
57763;BME280;43592;42.524;12.052;2022-07-06T01:46:02;96815.97;;;18.40;75.16
57763;BME280;43592;42.524;12.052;2022-07-06T01:48:28;96808.22;;;18.35;74.20
57763;BME280;43592;42.524;12.052;2022-07-06T01:50:53;96809.75;;;18.29;74.56
57763;BME280;43592;42.524;12.052;2022-07-06T01:53:19;96802.38;;;18.23;73.71
57763;BME280;43592;42.524;12.052;2022-07-06T01:55:44;96807.81;;;18.23;76.15
57763;BME280;43592;42.524;12.052;2022-07-06T01:58:10;96808.97;;;18.22;76.04
57763;BME280;43592;42.524;12.052;2022-07-06T02:00:35;96798.50;;;18.20;76.07
57763;BME280;43592;42.524;12.052;2022-07-06T02:03:01;96802.78;;;18.17;74.93
57763;BME280;43592;42.524;12.052;2022-07-06T02:05:26;96803.94;;;18.16;73.85
57763;BME280;43592;42.524;12.052;2022-07-06T02:07:52;96808.22;;;18.17;73.89
57763;BME280;43592;42.524;12.052;2022-07-06T02:10:17;96807.81;;;18.19;73.17
57763;BME280;43592;42.524;12.052;2022-07-06T02:12:43;96810.13;;;18.21;71.94
57763;BME280;43592;42.524;12.052;2022-07-06T02:15:08;96803.56;;;18.25;73.53
57763;BME280;43592;42.524;12.052;2022-07-06T02:17:34;96805.91;;;18.37;72.79
57763;BME280;43592;42.524;12.052;2022-07-06T02:20:00;96798.56;;;18.38;72.75
57763;BME280;43592;42.524;12.052;2022-07-06T02:22:25;96804.34;;;18.33;70.63
57763;BME280;43592;42.524;12.052;2022-07-06T02:24:51;96793.13;;;18.24;70.31
57763;BME280;43592;42.524;12.052;2022-07-06T02:27:16;96806.28;;;18.18;71.86
57763;BME280;43592;42.524;12.052;2022-07-06T02:29:42;96791.16;;;18.17;72.34
57763;BME280;43592;42.524;12.052;2022-07-06T02:32:07;96793.50;;;18.22;71.06
57763;BME280;43592;42.524;12.052;2022-07-06T02:34:33;96792.34;;;18.34;73.44
57763;BME280;43592;42.524;12.052;2022-07-06T02:36:58;96786.16;;;18.40;71.65
57763;BME280;43592;42.524;12.052;2022-07-06T02:39:25;96783.09;;;18.46;70.47
57763;BME280;43592;42.524;12.052;2022-07-06T02:41:51;96789.25;;;18.53;72.65
57763;BME280;43592;42.524;12.052;2022-07-06T02:44:16;96785.78;;;18.53;71.62
57763;BME280;43592;42.524;12.052;2022-07-06T02:46:42;96790.44;;;18.52;70.78
57763;BME280;43592;42.524;12.052;2022-07-06T02:49:07;96788.50;;;18.49;70.40
57763;BME280;43592;42.524;12.052;2022-07-06T02:51:33;96784.22;;;18.45;70.56
57763;BME280;43592;42.524;12.052;2022-07-06T02:53:58;96787.72;;;18.38;70.15
57763;BME280;43592;42.524;12.052;2022-07-06T02:56:24;96797.38;;;18.32;71.21
57763;BME280;43592;42.524;12.052;2022-07-06T02:58:49;96795.81;;;18.24;71.92
57763;BME280;43592;42.524;12.052;2022-07-06T03:01:15;96787.69;;;18.20;73.66
57763;BME280;43592;42.524;12.052;2022-07-06T03:03:40;96774.94;;;18.24;74.47
57763;BME280;43592;42.524;12.052;2022-07-06T03:06:06;96774.56;;;18.29;73.10
57763;BME280;43592;42.524;12.052;2022-07-06T03:08:31;96778.03;;;18.37;73.39
57763;BME280;43592;42.524;12.052;2022-07-06T03:10:57;96777.25;;;18.51;72.98
57763;BME280;43592;42.524;12.052;2022-07-06T03:13:22;96778.41;;;18.53;72.22
57763;BME280;43592;42.524;12.052;2022-07-06T03:15:48;96775.72;;;18.50;71.17
57763;BME280;43592;42.524;12.052;2022-07-06T03:18:13;96774.94;;;18.42;70.54
57763;BME280;43592;42.524;12.052;2022-07-06T03:20:39;96775.72;;;18.32;70.76
57763;BME280;43592;42.524;12.052;2022-07-06T03:23:04;96785.00;;;18.24;71.26
57763;BME280;43592;42.524;12.052;2022-07-06T03:25:30;96784.19;;;18.20;74.33
57763;BME280;43592;42.524;12.052;2022-07-06T03:27:55;96791.19;;;18.21;74.71
57763;BME280;43592;42.524;12.052;2022-07-06T03:30:21;96789.25;;;18.21;74.10
57763;BME280;43592;42.524;12.052;2022-07-06T03:32:46;96779.94;;;18.18;73.35
57763;BME280;43592;42.524;12.052;2022-07-06T03:35:12;96789.63;;;18.16;73.22
57763;BME280;43592;42.524;12.052;2022-07-06T03:37:37;96791.16;;;18.17;75.20
57763;BME280;43592;42.524;12.052;2022-07-06T03:40:03;96789.63;;;18.20;74.33
57763;BME280;43592;42.524;12.052;2022-07-06T03:42:28;96783.06;;;18.24;75.31
57763;BME280;43592;42.524;12.052;2022-07-06T03:44:54;96786.94;;;18.37;75.47
57763;BME280;43592;42.524;12.052;2022-07-06T03:47:19;96795.06;;;18.48;74.63
57763;BME280;43592;42.524;12.052;2022-07-06T03:49:45;96795.84;;;18.56;74.86
57763;BME280;43592;42.524;12.052;2022-07-06T03:52:10;96790.44;;;18.63;74.77
57763;BME280;43592;42.524;12.052;2022-07-06T03:54:36;96795.81;;;18.70;74.32
57763;BME280;43592;42.524;12.052;2022-07-06T03:57:01;96786.56;;;18.78;74.68
57763;BME280;43592;42.524;12.052;2022-07-06T03:59:27;96795.47;;;18.90;73.21
57763;BME280;43592;42.524;12.052;2022-07-06T04:01:52;96798.94;;;18.97;72.85
57763;BME280;43592;42.524;12.052;2022-07-06T04:04:18;96791.94;;;19.03;73.21
57763;BME280;43592;42.524;12.052;2022-07-06T04:06:43;96791.94;;;19.03;70.63
57763;BME280;43592;42.524;12.052;2022-07-06T04:09:09;96788.47;;;19.03;71.85
57763;BME280;43592;42.524;12.052;2022-07-06T04:11:34;96803.19;;;19.05;71.31
57763;BME280;43592;42.524;12.052;2022-07-06T04:14:00;96790.78;;;19.04;70.25
57763;BME280;43592;42.524;12.052;2022-07-06T04:16:25;96785.38;;;19.01;69.76
57763;BME280;43592;42.524;12.052;2022-07-06T04:18:51;96791.94;;;18.96;70.17
57763;BME280;43592;42.524;12.052;2022-07-06T04:21:16;96791.97;;;18.93;70.84
57763;BME280;43592;42.524;12.052;2022-07-06T04:23:42;96791.19;;;18.92;70.76
57763;BME280;43592;42.524;12.052;2022-07-06T04:26:07;96789.66;;;18.95;70.98
57763;BME280;43592;42.524;12.052;2022-07-06T04:28:33;96791.19;;;19.03;72.63
57763;BME280;43592;42.524;12.052;2022-07-06T04:30:58;96791.53;;;19.12;72.90
57763;BME280;43592;42.524;12.052;2022-07-06T04:33:24;96783.00;;;19.21;71.52
57763;BME280;43592;42.524;12.052;2022-07-06T04:35:50;96786.47;;;19.28;73.45
57763;BME280;43592;42.524;12.052;2022-07-06T04:38:15;96786.44;;;19.36;71.67
57763;BME280;43592;42.524;12.052;2022-07-06T04:40:41;96786.41;;;19.43;71.09
57763;BME280;43592;42.524;12.052;2022-07-06T04:43:06;96783.66;;;19.50;71.38
57763;BME280;43592;42.524;12.052;2022-07-06T04:45:32;96789.06;;;19.61;71.43
57763;BME280;43592;42.524;12.052;2022-07-06T04:47:57;96788.63;;;19.77;70.95
57763;BME280;43592;42.524;12.052;2022-07-06T04:50:23;96782.72;;;19.92;71.72
57763;BME280;43592;42.524;12.052;2022-07-06T04:52:48;96786.13;;;20.07;70.80
57763;BME280;43592;42.524;12.052;2022-07-06T04:55:14;96784.88;;;20.23;72.65
57763;BME280;43592;42.524;12.052;2022-07-06T04:57:40;96790.63;;;20.35;70.83
57763;BME280;43592;42.524;12.052;2022-07-06T05:00:06;96786.63;;;20.47;71.20
57763;BME280;43592;42.524;12.052;2022-07-06T05:02:32;96786.50;;;20.65;71.69
57763;BME280;43592;42.524;12.052;2022-07-06T05:04:58;96785.91;;;20.88;70.44
57763;BME280;43592;42.524;12.052;2022-07-06T05:07:23;96790.41;;;21.05;68.96
57763;BME280;43592;42.524;12.052;2022-07-06T05:09:53;96785.63;;;21.20;68.09
57763;BME280;43592;42.524;12.052;2022-07-06T05:12:18;96787.81;;;21.33;67.79
57763;BME280;43592;42.524;12.052;2022-07-06T05:14:44;96780.72;;;21.42;67.09
57763;BME280;43592;42.524;12.052;2022-07-06T05:17:09;96781.78;;;21.52;66.57
57763;BME280;43592;42.524;12.052;2022-07-06T05:19:35;96784.00;;;21.61;65.40
57763;BME280;43592;42.524;12.052;2022-07-06T05:22:00;96790.84;;;21.72;66.32
57763;BME280;43592;42.524;12.052;2022-07-06T05:24:26;96796.56;;;21.82;65.90
57763;BME280;43592;42.524;12.052;2022-07-06T05:26:51;96806.56;;;21.92;64.45
57763;BME280;43592;42.524;12.052;2022-07-06T05:29:17;96802.13;;;22.02;64.40
57763;BME280;43592;42.524;12.052;2022-07-06T05:31:42;96800.81;;;22.13;64.53
57763;BME280;43592;42.524;12.052;2022-07-06T05:34:08;96795.53;;;22.30;63.05
57763;BME280;43592;42.524;12.052;2022-07-06T05:36:33;96796.88;;;22.45;63.23
57763;BME280;43592;42.524;12.052;2022-07-06T05:38:59;96801.69;;;22.61;63.27
57763;BME280;43592;42.524;12.052;2022-07-06T05:41:24;96805.66;;;22.80;62.66
57763;BME280;43592;42.524;12.052;2022-07-06T05:43:50;96799.16;;;22.97;62.97
57763;BME280;43592;42.524;12.052;2022-07-06T05:46:15;96796.09;;;23.15;63.79
57763;BME280;43592;42.524;12.052;2022-07-06T05:48:41;96791.50;;;23.32;60.98
57763;BME280;43592;42.524;12.052;2022-07-06T05:51:24;96790.31;;;23.53;60.49
57763;BME280;43592;42.524;12.052;2022-07-06T05:53:50;96796.56;;;23.73;60.02
57763;BME280;43592;42.524;12.052;2022-07-06T05:56:15;96796.88;;;23.95;58.75
57763;BME280;43592;42.524;12.052;2022-07-06T05:58:41;96792.81;;;24.20;57.97
57763;BME280;43592;42.524;12.052;2022-07-06T06:01:06;96786.47;;;24.43;57.60
57763;BME280;43592;42.524;12.052;2022-07-06T06:03:32;96786.91;;;24.74;55.47
57763;BME280;43592;42.524;12.052;2022-07-06T06:05:58;96790.28;;;25.40;54.55
57763;BME280;43592;42.524;12.052;2022-07-06T06:08:23;96801.94;;;26.37;52.32
57763;BME280;43592;42.524;12.052;2022-07-06T06:10:49;96800.06;;;27.42;50.51
57763;BME280;43592;42.524;12.052;2022-07-06T06:13:14;96794.97;;;28.38;47.51
57763;BME280;43592;42.524;12.052;2022-07-06T06:15:40;96798.06;;;29.17;45.64
57763;BME280;43592;42.524;12.052;2022-07-06T06:18:05;96790.06;;;29.74;43.36
57763;BME280;43592;42.524;12.052;2022-07-06T06:20:31;96794.50;;;30.33;41.89
57763;BME280;43592;42.524;12.052;2022-07-06T06:22:57;96795.38;;;30.96;39.94
57763;BME280;43592;42.524;12.052;2022-07-06T06:25:33;96789.03;;;31.59;39.06
57763;BME280;43592;42.524;12.052;2022-07-06T06:27:59;96806.31;;;32.28;37.54
57763;BME280;43592;42.524;12.052;2022-07-06T06:30:25;96798.47;;;32.76;36.64
57763;BME280;43592;42.524;12.052;2022-07-06T06:32:51;96796.13;;;33.10;35.51
57763;BME280;43592;42.524;12.052;2022-07-06T06:35:16;96802.00;;;33.38;35.49
57763;BME280;43592;42.524;12.052;2022-07-06T06:37:42;96804.53;;;33.62;35.17
57763;BME280;43592;42.524;12.052;2022-07-06T06:40:07;96813.50;;;33.78;35.29
57763;BME280;43592;42.524;12.052;2022-07-06T06:42:35;96808.88;;;33.95;34.58
57763;BME280;43592;42.524;12.052;2022-07-06T06:45:01;96807.81;;;34.18;34.42
57763;BME280;43592;42.524;12.052;2022-07-06T06:47:26;96813.56;;;34.47;34.09
57763;BME280;43592;42.524;12.052;2022-07-06T06:49:52;96815.03;;;34.74;33.58
57763;BME280;43592;42.524;12.052;2022-07-06T06:52:17;96813.72;;;34.69;33.63
57763;BME280;43592;42.524;12.052;2022-07-06T06:54:43;96820.31;;;34.72;33.86
57763;BME280;43592;42.524;12.052;2022-07-06T06:57:08;96820.44;;;35.00;33.46
57763;BME280;43592;42.524;12.052;2022-07-06T06:59:34;96818.56;;;35.34;33.28
57763;BME280;43592;42.524;12.052;2022-07-06T07:01:59;96820.19;;;35.74;32.16
57763;BME280;43592;42.524;12.052;2022-07-06T07:04:25;96819.47;;;35.85;31.86
57763;BME280;43592;42.524;12.052;2022-07-06T07:06:50;96817.69;;;35.93;31.93
57763;BME280;43592;42.524;12.052;2022-07-06T07:09:16;96816.47;;;36.06;31.72
57763;BME280;43592;42.524;12.052;2022-07-06T07:11:41;96824.28;;;35.96;31.88
57763;BME280;43592;42.524;12.052;2022-07-06T07:14:07;96810.88;;;36.17;31.60
57763;BME280;43592;42.524;12.052;2022-07-06T07:16:33;96813.38;;;36.49;30.41
57763;BME280;43592;42.524;12.052;2022-07-06T07:18:58;96813.91;;;36.53;30.35
57763;BME280;43592;42.524;12.052;2022-07-06T07:21:24;96813.13;;;36.63;30.76
57763;BME280;43592;42.524;12.052;2022-07-06T07:23:49;96821.22;;;36.73;30.54
57763;BME280;43592;42.524;12.052;2022-07-06T07:26:15;96820.50;;;36.61;30.49
57763;BME280;43592;42.524;12.052;2022-07-06T07:28:41;96828.59;;;36.48;30.58
57763;BME280;43592;42.524;12.052;2022-07-06T07:31:06;96827.59;;;36.28;30.59
57763;BME280;43592;42.524;12.052;2022-07-06T07:33:32;96826.81;;;36.39;30.56
57763;BME280;43592;42.524;12.052;2022-07-06T07:35:57;96819.44;;;36.70;30.27
57763;BME280;43592;42.524;12.052;2022-07-06T07:38:23;96818.50;;;37.25;30.06
57763;BME280;43592;42.524;12.052;2022-07-06T07:40:48;96806.66;;;37.61;29.46
57763;BME280;43592;42.524;12.052;2022-07-06T07:43:14;96809.25;;;37.89;28.12
57763;BME280;43592;42.524;12.052;2022-07-06T07:45:39;96804.00;;;37.80;28.33
57763;BME280;43592;42.524;12.052;2022-07-06T07:48:05;96799.28;;;37.99;27.76
57763;BME280;43592;42.524;12.052;2022-07-06T07:50:31;96793.69;;;38.29;27.14
57763;BME280;43592;42.524;12.052;2022-07-06T07:52:56;96786.19;;;38.18;27.76
57763;BME280;43592;42.524;12.052;2022-07-06T07:55:21;96795.38;;;38.13;27.75
57763;BME280;43592;42.524;12.052;2022-07-06T07:57:47;96801.63;;;38.25;27.76
57763;BME280;43592;42.524;12.052;2022-07-06T08:00:13;96803.19;;;38.21;27.85
57763;BME280;43592;42.524;12.052;2022-07-06T08:05:25;96796.16;;;38.14;27.75
57763;BME280;43592;42.524;12.052;2022-07-06T08:07:51;96798.03;;;38.00;28.59
57763;BME280;43592;42.524;12.052;2022-07-06T08:10:17;96798.22;;;38.08;28.03
57763;BME280;43592;42.524;12.052;2022-07-06T08:12:42;96800.22;;;38.37;27.32
57763;BME280;43592;42.524;12.052;2022-07-06T08:15:08;96793.78;;;38.73;27.00
57763;BME280;43592;42.524;12.052;2022-07-06T08:17:34;96795.13;;;38.66;26.95
57763;BME280;43592;42.524;12.052;2022-07-06T08:19:59;96801.50;;;38.42;26.37
57763;BME280;43592;42.524;12.052;2022-07-06T08:22:25;96804.75;;;38.46;26.81
57763;BME280;43592;42.524;12.052;2022-07-06T08:24:50;96811.91;;;38.36;26.50
57763;BME280;43592;42.524;12.052;2022-07-06T08:27:16;96823.34;;;38.38;26.60
57763;BME280;43592;42.524;12.052;2022-07-06T08:29:42;96821.53;;;38.71;26.69
57763;BME280;43592;42.524;12.052;2022-07-06T08:32:07;96816.56;;;39.07;25.65
57763;BME280;43592;42.524;12.052;2022-07-06T08:34:33;96821.63;;;39.08;25.92
57763;BME280;43592;42.524;12.052;2022-07-06T08:36:58;96823.28;;;38.98;25.64
57763;BME280;43592;42.524;12.052;2022-07-06T08:39:23;96821.22;;;38.50;26.24
57763;BME280;43592;42.524;12.052;2022-07-06T08:41:49;96817.22;;;38.45;26.07
57763;BME280;43592;42.524;12.052;2022-07-06T08:44:16;96823.03;;;38.72;25.94
57763;BME280;43592;42.524;12.052;2022-07-06T08:46:41;96813.72;;;38.88;25.33
57763;BME280;43592;42.524;12.052;2022-07-06T08:49:07;96812.25;;;39.06;24.61
57763;BME280;43592;42.524;12.052;2022-07-06T08:51:36;96817.03;;;38.87;25.24
57763;BME280;43592;42.524;12.052;2022-07-06T08:54:02;96815.59;;;39.04;25.13
57763;BME280;43592;42.524;12.052;2022-07-06T08:56:27;96813.78;;;38.82;25.08
57763;BME280;43592;42.524;12.052;2022-07-06T08:58:53;96817.31;;;39.07;24.46
57763;BME280;43592;42.524;12.052;2022-07-06T09:01:19;96812.88;;;38.44;25.38
57763;BME280;43592;42.524;12.052;2022-07-06T09:03:45;96799.53;;;38.01;26.07
57763;BME280;43592;42.524;12.052;2022-07-06T09:06:14;96810.03;;;37.48;26.46
57763;BME280;43592;42.524;12.052;2022-07-06T09:08:40;96812.53;;;37.57;26.54
57763;BME280;43592;42.524;12.052;2022-07-06T09:11:06;96811.09;;;37.81;26.00
57763;BME280;43592;42.524;12.052;2022-07-06T09:13:31;96803.94;;;37.91;25.10
57763;BME280;43592;42.524;12.052;2022-07-06T09:16:08;96805.63;;;38.30;24.81
57763;BME280;43592;42.524;12.052;2022-07-06T09:18:36;96803.41;;;38.53;25.48
57763;BME280;43592;42.524;12.052;2022-07-06T09:21:01;96796.44;;;38.84;24.78
57763;BME280;43592;42.524;12.052;2022-07-06T09:23:27;96792.34;;;38.91;24.77
57763;BME280;43592;42.524;12.052;2022-07-06T09:25:53;96798.63;;;38.97;24.70
57763;BME280;43592;42.524;12.052;2022-07-06T09:28:20;96791.34;;;39.32;24.19
57763;BME280;43592;42.524;12.052;2022-07-06T09:36:39;96794.41;;;39.85;23.59
57763;BME280;43592;42.524;12.052;2022-07-06T09:39:15;96796.22;;;39.63;23.37
57763;BME280;43592;42.524;12.052;2022-07-06T09:41:41;96790.41;;;39.61;23.48
57763;BME280;43592;42.524;12.052;2022-07-06T09:44:07;96796.13;;;39.69;23.20
57763;BME280;43592;42.524;12.052;2022-07-06T09:46:39;96793.19;;;39.80;22.89
57763;BME280;43592;42.524;12.052;2022-07-06T09:49:07;96807.22;;;39.61;22.81
57763;BME280;43592;42.524;12.052;2022-07-06T09:51:36;96804.19;;;39.59;20.99
57763;BME280;43592;42.524;12.052;2022-07-06T09:54:08;96796.03;;;39.42;21.99
57763;BME280;43592;42.524;12.052;2022-07-06T09:56:40;96811.13;;;39.15;21.91
57763;BME280;43592;42.524;12.052;2022-07-06T09:59:12;96799.84;;;39.01;22.13
57763;BME280;43592;42.524;12.052;2022-07-06T10:01:38;96801.53;;;38.85;21.29
57763;BME280;43592;42.524;12.052;2022-07-06T10:04:08;96802.41;;;38.75;21.36
57763;BME280;43592;42.524;12.052;2022-07-06T10:06:36;96813.78;;;38.58;21.35
57763;BME280;43592;42.524;12.052;2022-07-06T10:09:02;96815.19;;;38.46;21.65
57763;BME280;43592;42.524;12.052;2022-07-06T10:11:30;96817.56;;;38.60;21.45
57763;BME280;43592;42.524;12.052;2022-07-06T10:13:57;96815.47;;;38.42;21.10
57763;BME280;43592;42.524;12.052;2022-07-06T10:16:23;96808.03;;;38.50;21.84
57763;BME280;43592;42.524;12.052;2022-07-06T10:18:50;96816.28;;;38.61;21.52
57763;BME280;43592;42.524;12.052;2022-07-06T10:21:19;96816.06;;;38.59;21.84
57763;BME280;43592;42.524;12.052;2022-07-06T10:23:44;96818.84;;;38.29;22.11
57763;BME280;43592;42.524;12.052;2022-07-06T10:26:11;96816.09;;;38.24;22.07
57763;BME280;43592;42.524;12.052;2022-07-06T10:28:37;96818.94;;;38.18;21.67
57763;BME280;43592;42.524;12.052;2022-07-06T10:31:03;96815.31;;;38.29;21.82
57763;BME280;43592;42.524;12.052;2022-07-06T10:33:29;96811.28;;;38.54;22.13
57763;BME280;43592;42.524;12.052;2022-07-06T10:35:56;96823.09;;;38.66;22.09
57763;BME280;43592;42.524;12.052;2022-07-06T10:38:22;96815.19;;;38.70;21.85
57763;BME280;43592;42.524;12.052;2022-07-06T10:41:06;96812.34;;;38.76;22.58
57763;BME280;43592;42.524;12.052;2022-07-06T10:43:34;96811.72;;;38.83;22.67
57763;BME280;43592;42.524;12.052;2022-07-06T10:46:05;96809.31;;;38.98;22.19
57763;BME280;43592;42.524;12.052;2022-07-06T10:48:35;96801.31;;;39.27;22.36
57763;BME280;43592;42.524;12.052;2022-07-06T10:51:02;96815.16;;;39.57;22.63
57763;BME280;43592;42.524;12.052;2022-07-06T10:53:39;96802.81;;;39.66;21.69
57763;BME280;43592;42.524;12.052;2022-07-06T10:58:36;96796.56;;;39.41;21.48
57763;BME280;43592;42.524;12.052;2022-07-06T11:01:02;96793.13;;;39.29;20.67
57763;BME280;43592;42.524;12.052;2022-07-06T11:03:35;96789.88;;;39.25;21.65
57763;BME280;43592;42.524;12.052;2022-07-06T11:06:02;96788.28;;;39.29;22.06
57763;BME280;43592;42.524;12.052;2022-07-06T11:08:43;96772.72;;;39.53;22.57
57763;BME280;43592;42.524;12.052;2022-07-06T11:16:40;96773.50;;;40.31;21.39
57763;BME280;43592;42.524;12.052;2022-07-06T11:19:26;96777.84;;;40.59;20.74
57763;BME280;43592;42.524;12.052;2022-07-06T11:21:53;96773.31;;;39.97;21.42
57763;BME280;43592;42.524;12.052;2022-07-06T11:24:22;96773.09;;;39.95;21.76
57763;BME280;43592;42.524;12.052;2022-07-06T11:26:54;96766.13;;;40.02;21.34
57763;BME280;43592;42.524;12.052;2022-07-06T11:29:22;96776.47;;;40.07;21.11
57763;BME280;43592;42.524;12.052;2022-07-06T11:31:49;96777.19;;;40.39;21.18
57763;BME280;43592;42.524;12.052;2022-07-06T11:34:20;96772.66;;;40.36;19.54
57763;BME280;43592;42.524;12.052;2022-07-06T11:36:46;96764.25;;;40.36;20.41
57763;BME280;43592;42.524;12.052;2022-07-06T11:39:14;96766.09;;;40.47;19.89
57763;BME280;43592;42.524;12.052;2022-07-06T11:41:40;96767.91;;;40.45;19.47
57763;BME280;43592;42.524;12.052;2022-07-06T11:44:06;96759.63;;;40.39;19.68
57763;BME280;43592;42.524;12.052;2022-07-06T11:46:33;96743.31;;;39.79;19.97
57763;BME280;43592;42.524;12.052;2022-07-06T11:49:08;96753.78;;;39.91;19.89
57763;BME280;43592;42.524;12.052;2022-07-06T11:51:35;96743.84;;;40.09;20.04
57763;BME280;43592;42.524;12.052;2022-07-06T11:54:06;96742.16;;;40.46;20.56
57763;BME280;43592;42.524;12.052;2022-07-06T11:56:33;96736.66;;;40.80;20.86
57763;BME280;43592;42.524;12.052;2022-07-06T11:59:00;96735.28;;;41.21;20.59
57763;BME280;43592;42.524;12.052;2022-07-06T12:01:29;96743.84;;;41.16;19.87
57763;BME280;43592;42.524;12.052;2022-07-06T12:04:00;96740.78;;;39.94;20.48
57763;BME280;43592;42.524;12.052;2022-07-06T12:06:27;96735.97;;;39.05;22.30
57763;BME280;43592;42.524;12.052;2022-07-06T12:08:54;96737.31;;;38.31;22.58
57763;BME280;43592;42.524;12.052;2022-07-06T12:11:31;96733.22;;;37.36;23.67
57763;BME280;43592;42.524;12.052;2022-07-06T12:13:58;96730.44;;;37.36;23.38
57763;BME280;43592;42.524;12.052;2022-07-06T12:16:31;96722.63;;;36.76;23.56
57763;BME280;43592;42.524;12.052;2022-07-06T12:18:59;96719.97;;;36.25;24.47
57763;BME280;43592;42.524;12.052;2022-07-06T12:21:26;96713.91;;;36.32;23.71
57763;BME280;43592;42.524;12.052;2022-07-06T12:23:52;96719.09;;;36.75;23.20
57763;BME280;43592;42.524;12.052;2022-07-06T12:26:19;96709.44;;;37.29;22.13
57763;BME280;43592;42.524;12.052;2022-07-06T12:28:46;96711.97;;;37.68;21.63
57763;BME280;43592;42.524;12.052;2022-07-06T12:31:30;96710.75;;;38.18;20.81
57763;BME280;43592;42.524;12.052;2022-07-06T12:33:56;96710.25;;;37.90;22.88
57763;BME280;43592;42.524;12.052;2022-07-06T12:36:22;96707.91;;;37.28;23.49
57763;BME280;43592;42.524;12.052;2022-07-06T12:38:49;96703.44;;;37.14;23.84
57763;BME280;43592;42.524;12.052;2022-07-06T12:41:25;96695.06;;;37.55;22.02
57763;BME280;43592;42.524;12.052;2022-07-06T12:43:59;96695.81;;;37.86;22.08
57763;BME280;43592;42.524;12.052;2022-07-06T12:46:36;96696.34;;;38.39;22.13
57763;BME280;43592;42.524;12.052;2022-07-06T12:49:03;96700.84;;;38.67;21.50
57763;BME280;43592;42.524;12.052;2022-07-06T12:51:47;96700.63;;;38.83;22.17
57763;BME280;43592;42.524;12.052;2022-07-06T12:54:14;96692.94;;;39.08;21.76
57763;BME280;43592;42.524;12.052;2022-07-06T12:59:24;96694.97;;;38.21;22.59
57763;BME280;43592;42.524;12.052;2022-07-06T13:01:51;96693.47;;;38.20;21.73
57763;BME280;43592;42.524;12.052;2022-07-06T13:04:17;96690.41;;;37.93;22.09
57763;BME280;43592;42.524;12.052;2022-07-06T13:06:44;96702.41;;;37.88;22.45
57763;BME280;43592;42.524;12.052;2022-07-06T13:09:10;96688.53;;;38.32;22.77
57763;BME280;43592;42.524;12.052;2022-07-06T13:11:37;96692.00;;;38.38;22.21